10 minutes ago
Runway Headwind Crosswind Length
2/20 12,402 ft
METAR WSAP 151700Z 00000KT 9000 FEW018 BKN160 25/25 Q1011

METAR definition | Embed

METAR Paya Lebar Air Base

This field is located in Singapore. The airport has one runway: 2/20 (12,402 ft)

This report was made for Paya Lebar Air Base on April 16, 2021 1:00 am, local time.

Airport observations

There is little or no wind from a variable direction.

Visibility is 5⅝ mi.

There are few clouds at an altitude of 1,800 ft and broken clouds at an altitude of 16,000 ft. The ceiling, broken or more, is 16,000 ft.

The temperature and wind chill are 77 °F. The dew point is 77 °F, the relative humidity is 100%. The air pressure at sea level is 29.85 inHg (QNH).

Daylight period

Today the sun rises at 7:00 am and sets at 7:08 pm. This applies to Paya Lebar Air Base, the universal daylight period may be different. The difference between the local time and UTC is +8 hour. Daylight saving time is currently in progress.

Historical data

Donate

Will you help us to keep Metar-Taf.com running?
Your contribution helps further development of the site and to pay for the expenses.

No more ads

Are you donating $ 5 or more? Then we'll never show you ads again, as a token of our eternal gratitude!
Log in before you donate

Do you want the flying weather of Paya Lebar Air Base on your website? Read more   Free!